Time;durP1;ratioP1;P1;durP2;ratioP2;P2;SDS_P1;SDS_P2;PMS_P1;PMS_P2;Temp;Humidity;BMP_temperature;BMP_pressure;BME280_temperature;BME280_humidity;BME280_pressure;Samples;Min_cycle;Max_cycle;Signal;HPM_P1;HPM_P2
2021/10/23 00:00:05;;;;;;;32.80;19.23;;;9.20;99.90;;;;;;4985123;28;20204;-72
2021/10/23 00:02:33;;;;;;;28.00;18.97;;;9.30;99.90;;;;;;4979539;28;20711;-72
2021/10/23 00:05:02;;;;;;;31.40;20.37;;;9.30;99.90;;;;;;4983986;28;20389;-73
2021/10/23 00:07:31;;;;;;;28.73;19.83;;;9.30;99.90;;;;;;4986619;28;20290;-73
2021/10/23 00:10:01;;;;;;;31.97;20.63;;;9.30;99.90;;;;;;4984605;28;20345;-73
2021/10/23 00:12:30;;;;;;;32.37;19.97;;;9.30;99.90;;;;;;4975788;28;20652;-73
2021/10/23 00:14:59;;;;;;;25.27;20.00;;;9.20;99.90;;;;;;4982453;28;20222;-73
2021/10/23 00:17:27;;;;;;;32.20;20.73;;;9.20;99.90;;;;;;4983014;28;20254;-72
2021/10/23 00:19:58;;;;;;;37.50;22.00;;;9.20;99.90;;;;;;4982612;28;20325;-73
2021/10/23 00:22:26;;;;;;;32.83;21.30;;;9.20;99.90;;;;;;4981959;28;20206;-72
2021/10/23 00:24:55;;;;;;;31.50;20.80;;;9.30;99.90;;;;;;4984994;28;20242;-72
2021/10/23 00:27:27;;;;;;;30.67;20.60;;;9.30;99.90;;;;;;4984000;28;20227;-72
2021/10/23 00:29:58;;;;;;;34.23;21.43;;;9.20;99.90;;;;;;4989004;28;20286;-72
2021/10/23 00:32:26;;;;;;;31.33;21.90;;;9.20;99.90;;;;;;4985304;28;20309;-72
2021/10/23 00:34:55;;;;;;;30.60;21.23;;;9.20;99.90;;;;;;4984301;28;20238;-72
2021/10/23 00:37:23;;;;;;;34.87;22.03;;;9.20;99.90;;;;;;4985638;28;20682;-73
2021/10/23 00:39:52;;;;;;;32.50;21.73;;;9.20;99.90;;;;;;4979597;28;20292;-72
2021/10/23 00:42:20;;;;;;;35.43;20.00;;;9.20;99.90;;;;;;4985299;28;20673;-73
2021/10/23 00:44:50;;;;;;;27.97;18.57;;;9.10;99.90;;;;;;4977360;28;20281;-73
2021/10/23 00:47:20;;;;;;;33.73;22.03;;;9.10;99.90;;;;;;4988085;28;20258;-73
2021/10/23 00:49:52;;;;;;;28.00;19.50;;;9.00;99.90;;;;;;4987840;28;20280;-73
2021/10/23 00:52:22;;;;;;;27.40;19.00;;;9.00;99.90;;;;;;4977265;28;20242;-73
2021/10/23 00:54:51;;;;;;;34.47;22.50;;;8.90;99.90;;;;;;4990903;28;20291;-73
2021/10/23 00:57:20;;;;;;;30.33;21.07;;;8.90;99.90;;;;;;4977771;28;20203;-73
2021/10/23 00:59:50;;;;;;;33.00;22.70;;;8.90;99.90;;;;;;4978472;28;20187;-73
2021/10/23 01:02:18;;;;;;;35.93;22.83;;;8.90;99.90;;;;;;4956718;28;20277;-72
2021/10/23 01:04:47;;;;;;;35.40;23.57;;;9.00;99.90;;;;;;4982608;28;20209;-72
2021/10/23 01:07:16;;;;;;;34.87;22.97;;;9.00;99.90;;;;;;4976871;28;20217;-73
2021/10/23 01:09:46;;;;;;;31.20;21.33;;;9.00;99.90;;;;;;4977513;28;20242;-72
2021/10/23 01:12:15;;;;;;;30.27;21.03;;;8.90;99.90;;;;;;4974189;28;20230;-72
2021/10/23 01:14:45;;;;;;;34.23;21.13;;;8.80;99.90;;;;;;4979663;28;20294;-72
2021/10/23 01:17:20;;;;;;;29.57;20.83;;;8.70;99.90;;;;;;4973190;28;20286;-72
2021/10/23 01:19:52;;;;;;;29.33;20.67;;;8.60;99.90;;;;;;4978387;28;20608;-73
2021/10/23 01:22:26;;;;;;;30.70;21.27;;;8.60;99.90;;;;;;4990021;28;20244;-72
2021/10/23 01:24:55;;;;;;;30.07;21.77;;;8.50;99.90;;;;;;4991197;28;20252;-72
2021/10/23 01:27:23;;;;;;;36.20;22.43;;;8.40;99.90;;;;;;4988596;28;20191;-72
2021/10/23 01:29:52;;;;;;;32.33;21.40;;;8.40;99.90;;;;;;4966144;28;20234;-72
2021/10/23 01:35:18;;;;;;;32.77;21.50;;;8.20;99.90;;;;;;5295346;23;20309;-74
2021/10/23 01:37:49;;;;;;;33.50;21.23;;;8.10;99.90;;;;;;4887083;29;20753;-74
2021/10/23 01:40:19;;;;;;;36.57;21.03;;;8.00;99.90;;;;;;4889118;29;20218;-74
2021/10/23 01:42:48;;;;;;;32.87;21.20;;;8.00;99.90;;;;;;4887594;29;20253;-74
2021/10/23 01:45:16;;;;;;;32.13;21.03;;;7.90;99.90;;;;;;4884636;29;20218;-74
2021/10/23 01:47:45;;;;;;;37.57;22.50;;;7.90;99.90;;;;;;4887803;29;20214;-74
2021/10/23 01:50:16;;;;;;;36.07;22.73;;;7.80;99.90;;;;;;4889392;29;20207;-74
2021/10/23 01:52:46;;;;;;;35.90;21.50;;;7.80;99.90;;;;;;4886268;29;20211;-74
2021/10/23 01:55:15;;;;;;;37.43;21.63;;;7.70;99.90;;;;;;4886831;29;20370;-74
2021/10/23 01:57:44;;;;;;;36.03;21.87;;;7.70;99.90;;;;;;4883266;29;20266;-74
2021/10/23 02:00:16;;;;;;;31.50;21.10;;;7.70;99.90;;;;;;4887771;29;20226;-74
2021/10/23 02:02:44;;;;;;;37.13;21.77;;;7.70;99.90;;;;;;4889120;29;20640;-73
2021/10/23 02:05:13;;;;;;;39.93;22.73;;;7.70;99.90;;;;;;4894267;29;20347;-73
2021/10/23 02:07:42;;;;;;;36.77;23.20;;;7.70;99.90;;;;;;4889386;29;20194;-73
2021/10/23 02:10:11;;;;;;;34.97;22.43;;;7.70;99.90;;;;;;4886480;29;20222;-73
2021/10/23 02:12:40;;;;;;;37.47;23.23;;;7.80;99.90;;;;;;4885927;29;20202;-73
2021/10/23 02:15:09;;;;;;;34.70;21.30;;;7.70;99.90;;;;;;4890240;29;20671;-73
2021/10/23 02:17:38;;;;;;;35.00;22.70;;;7.60;99.90;;;;;;4892702;29;20240;-73
2021/10/23 02:20:08;;;;;;;36.93;21.77;;;7.50;99.90;;;;;;4889229;29;20210;-73
2021/10/23 02:22:37;;;;;;;40.13;21.87;;;7.50;99.90;;;;;;4871096;29;20225;-73
2021/10/23 02:25:06;;;;;;;36.27;21.47;;;7.40;99.90;;;;;;4888647;29;20254;-74
2021/10/23 02:27:36;;;;;;;39.00;22.40;;;7.40;99.90;;;;;;4883423;29;20293;-74
2021/10/23 02:30:07;;;;;;;31.37;21.03;;;7.30;99.90;;;;;;4876048;29;20751;-73
2021/10/23 02:32:36;;;;;;;37.93;21.70;;;7.30;99.90;;;;;;4883014;29;20240;-73
2021/10/23 02:35:06;;;;;;;32.20;20.20;;;7.20;99.90;;;;;;4885498;29;20237;-73
2021/10/23 02:37:35;;;;;;;37.40;21.43;;;7.10;99.90;;;;;;4882431;29;20301;-73
2021/10/23 02:40:06;;;;;;;32.50;20.53;;;6.90;99.90;;;;;;4883707;29;20671;-73
2021/10/23 02:42:36;;;;;;;36.50;21.33;;;6.90;99.90;;;;;;4886941;29;20563;-73
2021/10/23 02:45:06;;;;;;;38.13;20.10;;;6.80;99.90;;;;;;4885850;29;20313;-73
2021/10/23 02:47:34;;;;;;;33.30;20.57;;;6.70;99.90;;;;;;4890624;29;20206;-73
2021/10/23 02:50:03;;;;;;;54.03;21.40;;;6.70;99.90;;;;;;4891647;29;20269;-73
2021/10/23 02:52:31;;;;;;;74.53;20.97;;;6.60;99.90;;;;;;4885114;29;20199;-73
2021/10/23 02:55:00;;;;;;;37.10;21.03;;;6.70;99.90;;;;;;4884952;29;20214;-73
2021/10/23 02:57:29;;;;;;;37.67;22.13;;;6.70;99.90;;;;;;4889435;29;20206;-73
2021/10/23 02:59:59;;;;;;;33.43;20.43;;;6.60;99.90;;;;;;4890115;29;20206;-73
2021/10/23 03:02:28;;;;;;;33.40;19.60;;;6.50;99.90;;;;;;4878644;29;20281;-73
2021/10/23 03:05:01;;;;;;;32.63;18.33;;;6.40;99.90;;;;;;4887716;29;20262;-73
2021/10/23 03:07:31;;;;;;;146.50;21.83;;;6.30;99.90;;;;;;4886217;29;20201;-73
2021/10/23 03:10:02;;;;;;;35.10;20.47;;;6.20;99.90;;;;;;4892637;29;20408;-73
2021/10/23 03:12:31;;;;;;;62.10;21.40;;;6.20;99.90;;;;;;4883323;29;20221;-73
2021/10/23 03:15:01;;;;;;;29.90;19.33;;;6.20;99.90;;;;;;4889348;29;20194;-73
2021/10/23 03:17:29;;;;;;;34.90;20.30;;;6.10;99.90;;;;;;4881472;29;20223;-73
2021/10/23 03:19:57;;;;;;;29.97;18.63;;;6.00;99.90;;;;;;4882295;29;20209;-73
2021/10/23 03:22:27;;;;;;;29.13;18.93;;;5.90;99.90;;;;;;4884869;29;20293;-73
2021/10/23 03:24:55;;;;;;;30.30;18.13;;;5.90;99.90;;;;;;4900169;29;20313;-73
2021/10/23 03:27:23;;;;;;;32.87;17.60;;;5.80;99.90;;;;;;4883400;29;20424;-73
2021/10/23 03:29:52;;;;;;;34.03;19.00;;;5.80;99.90;;;;;;4889305;29;20636;-73
2021/10/23 03:32:22;;;;;;;34.10;18.30;;;5.80;99.90;;;;;;4888902;29;20508;-73
2021/10/23 03:34:53;;;;;;;31.10;19.27;;;5.70;99.90;;;;;;4885013;29;20309;-73
2021/10/23 03:37:22;;;;;;;35.30;19.03;;;5.70;99.90;;;;;;4882951;29;20423;-73
2021/10/23 03:39:52;;;;;;;29.47;17.67;;;5.60;99.90;;;;;;4862207;29;20201;-74
2021/10/23 03:42:23;;;;;;;25.97;16.93;;;5.60;99.90;;;;;;4883348;29;20202;-73
2021/10/23 03:44:53;;;;;;;24.20;16.37;;;5.50;99.90;;;;;;4887681;29;20975;-74
2021/10/23 03:47:22;;;;;;;36.83;16.37;;;5.40;99.90;;;;;;4885341;29;20640;-73
2021/10/23 03:49:51;;;;;;;30.30;17.03;;;5.40;99.90;;;;;;4885859;29;20747;-73
2021/10/23 03:52:20;;;;;;;59.43;19.20;;;5.30;99.90;;;;;;4885366;29;20202;-73
2021/10/23 03:54:48;;;;;;;27.53;17.87;;;5.30;99.90;;;;;;4885517;29;20291;-74
2021/10/23 03:57:16;;;;;;;33.63;18.93;;;5.30;99.90;;;;;;4885931;29;20255;-73
2021/10/23 03:59:45;;;;;;;33.07;18.73;;;5.30;99.90;;;;;;4888576;29;20241;-73
2021/10/23 04:02:16;;;;;;;36.77;20.13;;;5.30;99.90;;;;;;4882946;29;20217;-73
2021/10/23 04:04:45;;;;;;;35.77;19.50;;;5.30;99.90;;;;;;4883290;29;20234;-73
2021/10/23 04:07:14;;;;;;;30.93;18.23;;;5.30;99.90;;;;;;4881971;29;20194;-74
2021/10/23 04:09:42;;;;;;;30.53;17.53;;;5.20;99.90;;;;;;4889017;29;20221;-73
2021/10/23 04:12:11;;;;;;;57.87;18.40;;;5.20;99.90;;;;;;4885051;29;20293;-73
2021/10/23 04:14:39;;;;;;;48.53;17.73;;;5.20;99.90;;;;;;4883175;29;21996;-73
2021/10/23 04:17:08;;;;;;;34.20;17.57;;;5.10;99.90;;;;;;4884141;29;20758;-74
2021/10/23 04:19:37;;;;;;;37.47;18.37;;;5.10;99.90;;;;;;4882820;29;20210;-73
2021/10/23 04:22:07;;;;;;;33.97;18.00;;;5.10;99.90;;;;;;4880260;29;20670;-74
2021/10/23 04:24:35;;;;;;;28.43;16.73;;;5.00;99.90;;;;;;4883434;29;20610;-74
2021/10/23 04:27:05;;;;;;;28.73;18.27;;;5.00;99.90;;;;;;4883727;29;20706;-74
2021/10/23 04:29:33;;;;;;;28.90;16.57;;;5.00;99.90;;;;;;4883753;29;20207;-74
2021/10/23 04:32:01;;;;;;;29.43;17.33;;;4.90;99.90;;;;;;4884613;29;20450;-73
2021/10/23 04:34:30;;;;;;;31.03;17.30;;;4.90;99.90;;;;;;4899776;29;20268;-73
2021/10/23 04:36:59;;;;;;;50.07;17.23;;;4.80;99.90;;;;;;4885279;29;20213;-73
2021/10/23 04:39:29;;;;;;;60.20;18.50;;;4.80;99.90;;;;;;4886555;29;20214;-73
2021/10/23 04:42:00;;;;;;;60.47;19.07;;;4.80;99.90;;;;;;4882836;29;20214;-73
2021/10/23 04:44:29;;;;;;;39.60;17.57;;;4.80;99.90;;;;;;4884556;29;20253;-74
2021/10/23 04:46:57;;;;;;;41.33;17.93;;;4.80;99.90;;;;;;4886569;29;20286;-73
2021/10/23 04:49:26;;;;;;;38.23;17.83;;;4.80;99.90;;;;;;4888237;29;20202;-74
2021/10/23 04:51:54;;;;;;;37.27;17.97;;;4.80;99.90;;;;;;4885825;29;20329;-74
2021/10/23 04:54:22;;;;;;;38.70;19.50;;;4.70;99.90;;;;;;4882699;29;20250;-73
2021/10/23 04:56:52;;;;;;;51.17;20.23;;;4.70;99.90;;;;;;4884885;29;20261;-74
2021/10/23 04:59:20;;;;;;;39.33;18.80;;;4.70;99.90;;;;;;4887993;29;20367;-73
2021/10/23 05:01:49;;;;;;;44.43;19.70;;;4.70;99.90;;;;;;4880958;29;20221;-73
2021/10/23 05:04:17;;;;;;;33.07;18.27;;;4.70;99.90;;;;;;4883655;29;20210;-73
2021/10/23 05:06:46;;;;;;;41.17;18.70;;;4.60;99.90;;;;;;4885034;29;20210;-73
2021/10/23 05:09:14;;;;;;;40.50;17.57;;;4.60;99.90;;;;;;4883748;29;20221;-73
2021/10/23 05:11:42;;;;;;;84.20;18.50;;;4.60;99.90;;;;;;4881635;29;20230;-74
2021/10/23 05:14:12;;;;;;;30.43;17.23;;;4.60;99.90;;;;;;4888452;29;20651;-74
2021/10/23 05:16:41;;;;;;;39.67;18.50;;;4.60;99.90;;;;;;4882263;29;20190;-74
2021/10/23 05:19:09;;;;;;;51.10;19.23;;;4.60;99.90;;;;;;4884140;29;20694;-73
2021/10/23 05:21:38;;;;;;;50.43;19.87;;;4.70;99.90;;;;;;4881948;29;20214;-74
2021/10/23 05:24:06;;;;;;;39.13;19.60;;;4.80;99.90;;;;;;4882846;29;20302;-74
2021/10/23 05:26:35;;;;;;;40.47;20.30;;;4.90;99.90;;;;;;4887431;29;20222;-74
2021/10/23 05:29:03;;;;;;;41.73;20.70;;;4.90;99.90;;;;;;4886409;29;20210;-73
2021/10/23 05:31:33;;;;;;;31.77;19.73;;;5.00;99.90;;;;;;4881239;29;20794;-74
2021/10/23 05:34:01;;;;;;;33.07;18.93;;;5.00;99.90;;;;;;4888959;29;20212;-74
2021/10/23 05:36:30;;;;;;;36.10;18.73;;;5.00;99.90;;;;;;4881771;29;20210;-74
2021/10/23 05:38:58;;;;;;;36.03;19.87;;;5.00;99.90;;;;;;4883515;29;20278;-74
2021/10/23 05:41:27;;;;;;;31.83;19.60;;;5.00;99.90;;;;;;4879224;29;20290;-74
2021/10/23 05:43:55;;;;;;;32.37;19.87;;;5.10;99.90;;;;;;4883086;29;20549;-74
2021/10/23 05:57:25;;;;;;;31.43;19.87;;;5.10;99.90;;;;;;5058757;28;20644;-73
2021/10/23 05:59:54;;;;;;;34.57;19.27;;;5.60;99.90;;;;;;5054347;28;20200;-75
2021/10/23 06:02:24;;;;;;;30.73;18.27;;;5.60;99.90;;;;;;5058470;28;20196;-73
2021/10/23 06:04:57;;;;;;;30.97;18.27;;;5.60;99.90;;;;;;5055565;28;20740;-73
2021/10/23 06:07:27;;;;;;;40.63;22.47;;;5.60;99.90;;;;;;5057392;28;20235;-73
2021/10/23 06:09:58;;;;;;;41.90;22.87;;;5.70;99.90;;;;;;5038168;28;20539;-74
2021/10/23 06:12:27;;;;;;;40.60;22.43;;;5.80;99.90;;;;;;5060832;28;20200;-73
2021/10/23 06:14:56;;;;;;;44.40;22.33;;;5.90;99.90;;;;;;5061971;28;20662;-73
2021/10/23 06:17:24;;;;;;;37.50;22.97;;;5.90;99.90;;;;;;5058158;28;20332;-73
2021/10/23 06:19:53;;;;;;;40.10;23.60;;;6.00;99.90;;;;;;5057829;28;20248;-73
2021/10/23 06:22:21;;;;;;;44.50;24.60;;;6.10;99.90;;;;;;5040565;28;20216;-75
2021/10/23 06:24:50;;;;;;;45.80;23.97;;;6.10;99.90;;;;;;5060176;28;20360;-75
2021/10/23 06:27:18;;;;;;;41.17;24.07;;;6.30;99.90;;;;;;5061580;28;20275;-73
2021/10/23 06:29:48;;;;;;;45.47;26.67;;;6.40;99.90;;;;;;5061983;28;20270;-73
2021/10/23 06:32:16;;;;;;;47.37;26.37;;;6.50;99.90;;;;;;5057764;28;20611;-75
2021/10/23 06:34:45;;;;;;;50.77;25.50;;;6.50;99.90;;;;;;5064169;28;20199;-75
2021/10/23 06:37:18;;;;;;;44.03;24.03;;;6.60;99.90;;;;;;5062538;28;20281;-74
2021/10/23 06:39:52;;;;;;;40.90;24.63;;;6.60;99.90;;;;;;5046455;28;20196;-75
2021/10/23 06:42:20;;;;;;;52.03;28.03;;;6.60;99.90;;;;;;5061826;28;20623;-75
2021/10/23 06:44:50;;;;;;;47.80;28.13;;;6.60;99.90;;;;;;5066374;28;20740;-75
2021/10/23 06:47:18;;;;;;;50.83;28.43;;;6.60;99.90;;;;;;5058570;28;20200;-75
2021/10/23 06:49:47;;;;;;;51.97;28.37;;;6.80;99.90;;;;;;5057854;28;20201;-75
2021/10/23 06:52:16;;;;;;;53.03;28.03;;;6.80;99.90;;;;;;5056087;28;20322;-75
2021/10/23 06:54:44;;;;;;;62.87;28.63;;;6.90;99.90;;;;;;5046164;28;20224;-75
2021/10/23 06:57:12;;;;;;;50.70;27.97;;;7.00;99.90;;;;;;5047122;28;20255;-75
2021/10/23 06:59:58;;;;;;;58.00;28.73;;;7.10;99.90;;;;;;5045773;28;20203;-75
2021/10/23 07:02:26;;;;;;;60.47;29.30;;;7.20;99.90;;;;;;5057046;28;20261;-75
2021/10/23 07:04:55;;;;;;;53.27;28.87;;;7.20;99.90;;;;;;5050156;28;20192;-75
2021/10/23 07:07:24;;;;;;;52.07;28.03;;;7.20;99.90;;;;;;5047990;28;20769;-75
2021/10/23 07:09:52;;;;;;;56.93;30.00;;;7.30;99.90;;;;;;5043112;28;20231;-75
2021/10/23 07:12:20;;;;;;;57.87;29.90;;;7.30;99.90;;;;;;5044770;28;20227;-75
2021/10/23 07:14:50;;;;;;;59.37;29.83;;;7.40;99.90;;;;;;5048748;28;20221;-75
2021/10/23 07:17:20;;;;;;;56.93;30.63;;;7.40;99.90;;;;;;5049538;28;20220;-75
2021/10/23 07:19:48;;;;;;;56.03;29.47;;;7.50;99.90;;;;;;5057450;28;20188;-75
2021/10/23 07:22:17;;;;;;;55.50;29.73;;;7.50;99.90;;;;;;5051251;28;20680;-76
2021/10/23 07:24:45;;;;;;;58.03;31.37;;;7.60;99.90;;;;;;5049001;28;20201;-76
2021/10/23 07:27:13;;;;;;;124.93;65.20;;;7.60;99.90;;;;;;5048097;28;20228;-75
2021/10/23 07:29:42;;;;;;;64.73;37.57;;;7.60;99.90;;;;;;5047869;28;20262;-74
2021/10/23 07:32:10;;;;;;;127.80;81.20;;;7.70;99.90;;;;;;5049256;28;20203;-75
2021/10/23 07:34:40;;;;;;;52.63;31.03;;;7.70;99.90;;;;;;5050781;28;20299;-75
2021/10/23 07:37:09;;;;;;;57.30;29.30;;;7.80;99.90;;;;;;5058378;28;20236;-75
2021/10/23 07:39:39;;;;;;;56.07;30.63;;;8.00;99.90;;;;;;5057144;28;20239;-75
2021/10/23 07:42:08;;;;;;;63.30;30.53;;;8.00;99.90;;;;;;5046299;28;20283;-75
2021/10/23 07:44:36;;;;;;;55.80;32.47;;;8.00;99.90;;;;;;5048952;28;20193;-75
2021/10/23 07:47:05;;;;;;;64.60;34.80;;;8.10;99.90;;;;;;5057911;28;20618;-75
2021/10/23 07:49:34;;;;;;;56.73;30.03;;;8.20;99.90;;;;;;5051622;28;20192;-75
2021/10/23 07:52:04;;;;;;;81.53;49.97;;;8.20;99.90;;;;;;5048419;28;20259;-75
2021/10/23 07:54:33;;;;;;;64.23;40.60;;;8.20;99.90;;;;;;5054729;28;20197;-75
2021/10/23 07:57:01;;;;;;;59.10;30.07;;;8.30;99.90;;;;;;5054267;28;20493;-75
2021/10/23 07:59:29;;;;;;;61.13;31.23;;;8.40;99.90;;;;;;5057280;28;20736;-75
2021/10/23 08:01:58;;;;;;;52.50;29.63;;;8.40;99.90;;;;;;5059395;28;20204;-75
2021/10/23 08:04:27;;;;;;;48.33;27.37;;;8.50;99.90;;;;;;5036421;28;20768;-75
2021/10/23 08:06:56;;;;;;;49.40;27.50;;;8.50;99.90;;;;;;5053145;28;20251;-75
2021/10/23 08:09:26;;;;;;;51.43;27.00;;;8.60;99.90;;;;;;5062056;28;20257;-75
2021/10/23 08:11:54;;;;;;;53.30;28.00;;;8.70;99.90;;;;;;5051001;28;20211;-75
2021/10/23 08:14:23;;;;;;;45.03;26.00;;;8.70;99.90;;;;;;5036858;28;20718;-75
2021/10/23 08:16:51;;;;;;;50.50;30.77;;;8.80;99.90;;;;;;5043575;28;20502;-75
2021/10/23 08:19:20;;;;;;;45.77;25.80;;;8.80;99.90;;;;;;5042678;28;20567;-75
2021/10/23 08:21:49;;;;;;;44.23;25.17;;;9.00;99.90;;;;;;5044707;28;20190;-75
2021/10/23 08:24:17;;;;;;;68.87;44.80;;;9.00;99.90;;;;;;5037712;28;20212;-75
2021/10/23 08:26:49;;;;;;;58.10;35.07;;;9.00;99.90;;;;;;5044802;28;20221;-75
2021/10/23 08:29:18;;;;;;;43.60;25.23;;;9.00;99.90;;;;;;5045188;28;20291;-75
2021/10/23 08:31:47;;;;;;;45.73;26.93;;;9.00;99.90;;;;;;5049639;28;20729;-75
2021/10/23 08:34:16;;;;;;;185.70;125.80;;;9.00;99.90;;;;;;5042906;28;20770;-75
2021/10/23 08:36:45;;;;;;;52.87;31.63;;;8.90;99.90;;;;;;5042464;28;20598;-75
2021/10/23 08:39:15;;;;;;;46.10;27.43;;;9.00;99.90;;;;;;5031430;28;20638;-75
2021/10/23 08:41:44;;;;;;;44.70;26.30;;;9.40;99.90;;;;;;5044145;28;20755;-75
2021/10/23 08:44:16;;;;;;;43.30;24.10;;;9.70;99.90;;;;;;5037256;28;20608;-75
2021/10/23 08:46:45;;;;;;;60.90;39.43;;;9.80;99.90;;;;;;5022654;28;20695;-75
2021/10/23 08:49:14;;;;;;;41.27;23.27;;;9.90;99.90;;;;;;5040091;28;20197;-75
2021/10/23 08:51:46;;;;;;;34.60;21.20;;;10.00;99.90;;;;;;5039727;28;20224;-75
2021/10/23 08:54:15;;;;;;;37.07;20.60;;;9.90;99.90;;;;;;5044733;28;20228;-75
2021/10/23 08:56:44;;;;;;;30.53;20.17;;;10.10;99.90;;;;;;5040847;28;20386;-75
2021/10/23 08:59:13;;;;;;;25.93;18.00;;;10.40;99.90;;;;;;5042195;28;20197;-75
2021/10/23 09:01:47;;;;;;;25.23;18.00;;;10.60;99.90;;;;;;5046155;28;20211;-75
2021/10/23 09:04:16;;;;;;;26.10;16.10;;;10.60;99.90;;;;;;5041783;28;20193;-75
2021/10/23 09:06:44;;;;;;;23.13;16.33;;;10.70;99.90;;;;;;5047355;28;20518;-75
2021/10/23 09:09:15;;;;;;;21.33;13.87;;;11.00;99.90;;;;;;5044523;28;20550;-76
2021/10/23 09:11:46;;;;;;;20.43;12.47;;;11.20;99.90;;;;;;5041910;28;20220;-75
2021/10/23 09:14:23;;;;;;;18.60;13.13;;;11.20;99.90;;;;;;5047485;28;20652;-75
2021/10/23 09:17:02;;;;;;;17.83;11.70;;;11.20;99.90;;;;;;5047492;28;20192;-75
2021/10/23 09:19:42;;;;;;;17.93;11.33;;;11.10;99.90;;;;;;5044943;28;20204;-75
2021/10/23 09:22:23;;;;;;;15.73;11.00;;;11.30;99.90;;;;;;5042172;28;20231;-75
2021/10/23 09:25:13;;;;;;;23.17;11.50;;;11.60;99.90;;;;;;5048343;28;20207;-75
2021/10/23 09:27:54;;;;;;;18.70;10.43;;;11.60;99.90;;;;;;5037777;28;20228;-76
2021/10/23 09:30:30;;;;;;;16.10;10.70;;;11.70;99.90;;;;;;5042923;28;20719;-76
2021/10/23 09:33:04;;;;;;;19.77;9.97;;;11.90;99.90;;;;;;5037627;28;20214;-75
2021/10/23 09:35:38;;;;;;;14.70;10.07;;;11.90;99.90;;;;;;5052495;28;20246;-75
2021/10/23 09:38:08;;;;;;;14.30;9.50;;;12.10;99.90;;;;;;5047419;28;20236;-75
2021/10/23 09:40:38;;;;;;;16.27;9.77;;;12.30;99.90;;;;;;5044479;28;20197;-75
2021/10/23 09:43:08;;;;;;;20.23;9.97;;;12.30;99.90;;;;;;5047653;28;20287;-75
2021/10/23 09:46:03;;;;;;;17.73;10.17;;;12.30;99.90;;;;;;5037810;28;20200;-75
2021/10/23 09:48:32;;;;;;;16.37;10.70;;;12.40;99.90;;;;;;5049461;28;20204;-75
2021/10/23 09:51:19;;;;;;;16.20;9.50;;;12.60;99.90;;;;;;5042428;28;20296;-75
2021/10/23 09:53:49;;;;;;;16.90;9.27;;;12.90;99.90;;;;;;5040546;28;20281;-75
2021/10/23 09:56:23;;;;;;;10.60;8.53;;;12.90;99.90;;;;;;5045751;28;20595;-75
2021/10/23 09:58:53;;;;;;;14.57;9.13;;;12.80;99.90;;;;;;5044999;28;20551;-75
2021/10/23 10:01:26;;;;;;;16.83;9.43;;;12.90;99.90;;;;;;5039890;28;20602;-75
2021/10/23 10:03:57;;;;;;;15.43;9.20;;;13.00;99.90;;;;;;5042728;28;20254;-75
2021/10/23 10:06:27;;;;;;;11.77;9.40;;;13.20;99.90;;;;;;5048825;28;20214;-75
2021/10/23 10:08:56;;;;;;;13.93;9.27;;;13.30;99.90;;;;;;5043016;28;20217;-75
2021/10/23 10:11:24;;;;;;;13.27;9.40;;;13.50;99.90;;;;;;5045744;28;20196;-75
2021/10/23 10:13:53;;;;;;;14.60;8.93;;;13.50;99.90;;;;;;5050077;28;20238;-75
2021/10/23 10:16:24;;;;;;;15.57;9.53;;;13.70;99.90;;;;;;5047641;28;20196;-75
2021/10/23 10:18:55;;;;;;;16.80;9.30;;;13.80;99.90;;;;;;5036434;28;20185;-75
2021/10/23 10:21:24;;;;;;;15.50;10.80;;;13.60;99.90;;;;;;5050493;28;20328;-76
2021/10/23 10:23:54;;;;;;;11.53;9.67;;;13.70;99.90;;;;;;5047093;28;20195;-75
2021/10/23 10:26:31;;;;;;;14.37;9.50;;;14.00;99.90;;;;;;5048342;28;20270;-75
2021/10/23 10:29:19;;;;;;;14.50;10.87;;;14.30;99.90;;;;;;5037141;28;20224;-75
2021/10/23 10:31:52;;;;;;;11.50;9.43;;;14.40;99.90;;;;;;5039732;28;20197;-75
2021/10/23 10:34:59;;;;;;;12.83;8.40;;;14.50;99.90;;;;;;5040464;28;20258;-75
2021/10/23 10:37:50;;;;;;;15.93;9.27;;;14.60;99.90;;;;;;5046994;28;20603;-75
2021/10/23 10:40:31;;;;;;;12.43;8.70;;;14.60;99.90;;;;;;5046329;28;20248;-75
2021/10/23 10:43:03;;;;;;;12.83;8.57;;;14.80;99.90;;;;;;5041284;28;20232;-75
2021/10/23 10:45:34;;;;;;;14.30;9.00;;;15.00;99.90;;;;;;5041416;28;20202;-75
2021/10/23 10:48:11;;;;;;;10.50;8.70;;;15.00;99.90;;;;;;5057045;28;20465;-75
2021/10/23 10:50:43;;;;;;;11.07;8.83;;;15.00;99.90;;;;;;5043322;28;20227;-75
2021/10/23 10:53:19;;;;;;;12.23;7.83;;;15.10;99.90;;;;;;5044257;28;20199;-75
2021/10/23 10:55:50;;;;;;;10.83;7.83;;;15.30;99.90;;;;;;5046297;28;20228;-75
2021/10/23 10:58:20;;;;;;;12.37;8.40;;;15.40;99.90;;;;;;5045275;28;20704;-75
2021/10/23 11:01:17;;;;;;;10.40;7.50;;;15.50;99.90;;;;;;5039178;28;20204;-76
2021/10/23 11:03:48;;;;;;;8.37;6.87;;;15.80;99.90;;;;;;5043993;28;20287;-75
2021/10/23 11:06:56;;;;;;;11.13;6.87;;;16.00;99.90;;;;;;5035862;28;20196;-75
2021/10/23 11:09:47;;;;;;;11.27;7.30;;;16.10;99.90;;;;;;5038424;28;20250;-75
2021/10/23 11:12:21;;;;;;;7.57;6.23;;;16.40;99.90;;;;;;5050407;28;20725;-75
2021/10/23 11:14:49;;;;;;;8.87;6.43;;;16.40;99.90;;;;;;5055309;28;20556;-75
2021/10/23 11:17:20;;;;;;;8.40;6.37;;;16.50;99.90;;;;;;5050593;28;20247;-75
2021/10/23 11:19:51;;;;;;;10.73;7.00;;;16.50;99.90;;;;;;5049256;28;20189;-75
2021/10/23 11:22:22;;;;;;;12.13;8.90;;;16.70;99.90;;;;;;5048843;28;20247;-75
2021/10/23 11:24:55;;;;;;;12.77;6.30;;;16.80;99.90;;;;;;5043478;28;21561;-75
2021/10/23 11:27:33;;;;;;;9.33;6.70;;;16.80;99.90;;;;;;5054385;28;20726;-75
2021/10/23 11:30:16;;;;;;;8.73;5.70;;;16.90;99.90;;;;;;5047030;28;20200;-75
2021/10/23 11:32:53;;;;;;;8.47;5.73;;;17.20;99.90;;;;;;5026444;28;20216;-75
2021/10/23 11:35:33;;;;;;;8.07;5.97;;;17.20;99.90;;;;;;5034169;28;20206;-75
2021/10/23 11:38:05;;;;;;;12.23;6.57;;;17.40;99.90;;;;;;5057258;28;20207;-75
2021/10/23 11:40:36;;;;;;;9.90;9.03;;;17.40;99.90;;;;;;5045533;28;20742;-75
2021/10/23 11:43:05;;;;;;;7.80;5.93;;;17.30;99.90;;;;;;5051640;28;20251;-75
2021/10/23 11:45:37;;;;;;;6.67;5.83;;;17.50;99.90;;;;;;5044063;28;20287;-74
2021/10/23 11:48:10;;;;;;;8.23;5.47;;;17.70;99.90;;;;;;5049784;28;20294;-74
2021/10/23 11:50:40;;;;;;;13.17;11.40;;;17.60;99.90;;;;;;5042802;28;20259;-74
2021/10/23 11:53:12;;;;;;;11.03;8.97;;;17.80;99.90;;;;;;5038659;28;20198;-74
2021/10/23 11:55:45;;;;;;;7.17;4.37;;;17.80;99.90;;;;;;5027540;28;20229;-74
2021/10/23 11:58:15;;;;;;;6.13;4.83;;;17.60;99.90;;;;;;5040527;28;20191;-74
2021/10/23 12:00:47;;;;;;;4.77;3.83;;;17.80;99.90;;;;;;5044361;28;20189;-74
2021/10/23 12:03:17;;;;;;;7.53;4.67;;;17.80;99.90;;;;;;5035275;28;20206;-74
2021/10/23 12:05:49;;;;;;;5.37;4.67;;;18.00;99.90;;;;;;5045527;28;20216;-74
2021/10/23 12:08:22;;;;;;;5.10;4.60;;;17.90;99.90;;;;;;5046599;28;20205;-74
2021/10/23 12:11:16;;;;;;;6.40;4.00;;;18.10;99.90;;;;;;5040199;28;20228;-74
2021/10/23 12:14:03;;;;;;;6.77;3.90;;;17.80;99.90;;;;;;5040716;28;20197;-74
2021/10/23 12:16:34;;;;;;;3.63;3.40;;;18.00;99.90;;;;;;5037902;28;20193;-74
2021/10/23 12:19:05;;;;;;;3.17;2.87;;;17.70;99.90;;;;;;5041238;28;20201;-74
2021/10/23 12:21:47;;;;;;;3.27;2.97;;;17.70;99.90;;;;;;5033725;28;20189;-74
2021/10/23 12:24:21;;;;;;;4.37;4.07;;;17.70;99.90;;;;;;5046427;28;20208;-74
2021/10/23 12:27:11;;;;;;;3.10;2.93;;;17.80;99.90;;;;;;5038595;28;20253;-74
2021/10/23 12:29:42;;;;;;;3.30;2.60;;;17.70;99.90;;;;;;5044015;28;20225;-74
2021/10/23 12:32:12;;;;;;;3.50;2.20;;;17.60;99.90;;;;;;5044285;28;20204;-74
2021/10/23 12:35:20;;;;;;;2.37;2.27;;;17.60;99.90;;;;;;5048119;28;20614;-74
2021/10/23 12:37:54;;;;;;;2.00;1.90;;;17.70;99.90;;;;;;4969601;28;20198;-74
2021/10/23 12:40:28;;;;;;;1.67;1.60;;;17.80;99.90;;;;;;4953542;28;20199;-74
2021/10/23 12:43:06;;;;;;;1.90;1.80;;;17.60;99.90;;;;;;5030684;28;20290;-74
2021/10/23 12:45:36;;;;;;;2.20;1.80;;;17.50;99.90;;;;;;5045808;28;20231;-73
2021/10/23 12:48:07;;;;;;;3.10;2.30;;;17.20;99.90;;;;;;5047099;28;20437;-73
2021/10/23 12:50:38;;;;;;;2.60;2.40;;;17.10;99.90;;;;;;5042915;28;20209;-73
2021/10/23 12:53:06;;;;;;;2.77;2.23;;;17.20;99.90;;;;;;5047885;28;20234;-73
2021/10/23 12:55:36;;;;;;;2.07;1.97;;;17.40;99.90;;;;;;5053589;28;20233;-74
2021/10/23 12:58:06;;;;;;;3.80;2.30;;;17.50;99.90;;;;;;5037436;28;20228;-74
2021/10/23 13:00:36;;;;;;;3.17;1.83;;;17.50;99.90;;;;;;5029943;28;20199;-73
2021/10/23 13:03:05;;;;;;;2.10;1.77;;;17.40;99.90;;;;;;5046611;28;20279;-73
2021/10/23 13:05:34;;;;;;;2.53;1.70;;;17.20;99.90;;;;;;5043533;28;20195;-73
2021/10/23 13:08:02;;;;;;;1.87;1.87;;;16.90;99.90;;;;;;5047419;28;20206;-73
2021/10/23 13:10:31;;;;;;;2.93;2.30;;;16.90;99.90;;;;;;5055156;28;20396;-73